Observations for SIOUX FALLS FOSS, SD (FSD)

KFSD 220656Z AUTO 17008KT 10SM CLR 08/06 A3032 RMK AO2 SLP274 T00830056 
KFSD 220556Z AUTO 16006KT 10SM CLR 09/06 A3032 RMK AO2 SLP275 T00890056 10133 20072 401500072 58002 
KFSD 220456Z 00000KT 10SM CLR 08/06 A3034 RMK AO2 SLP282 LAST T00780061 
KFSD 220356Z 00000KT 10SM CLR 08/06 A3034 RMK AO2 SLP280 T00830061  
KFSD 220256Z 00000KT 10SM CLR 09/06 A3033 RMK AO2 SLP277 T00940061 51010
KFSD 220156Z 00000KT 10SM CLR 09/06 A3033 RMK AO2 SLP276 T00940061  
KFSD 220056Z 00000KT 10SM CLR 11/06 A3031 RMK AO2 SLP271 T01060056  
KFSD 212356Z 05006KT 10SM FEW042 13/06 A3030 RMK AO2 SLP264 T01330056 10150 20106 53006 
KFSD 212256Z 03007KT 10SM FEW041 15/05 A3029 RMK AO2 SLP261 T01500050   
KFSD 212156Z 01010KT 10SM SCT041 15/05 A3028 RMK AO2 SLP257 T01500050   
KFSD 212056Z 36013G22KT 10SM SCT037 14/05 A3028 RMK AO2 SLP257 T01440050 58003  
KFSD 211956Z 33013G21KT 10SM BKN033 13/06 A3029 RMK AO2 SLP260 T01330056
KFSD 211916Z 35015G20KT 10SM BKN031 12/06 A3030 RMK AO2 T01220056
KFSD 211856Z 34013G21KT 10SM BKN029 12/06 A3029 RMK AO2 SLP262 T01170056
KFSD 211756Z 35016G24KT 10SM OVC025 11/06 A3029 RMK AO2 SLP261 60000 T01060056 10111 20089 51022
KFSD 211656Z 32016G25KT 10SM OVC021 10/06 A3029 RMK AO2 PK WND 32027/1637 SLP261 T01000056  
KFSD 211556Z 31015G22KT 10SM BKN018 11/07 A3025 RMK AO2 SLP247 T01060067
KFSD 211456Z 31016G26KT 10SM BKN015 OVC020 09/07 A3022 RMK AO2 PK WND 32029/1435 SLP238 60000 T00940067 51048   
KFSD 211356Z 31019G24KT 10SM BKN018 OVC023 09/06 A3018 RMK AO2 PK WND 33027/1303 SLP223 T00890061   
KFSD 211324Z 32017KT 10SM SCT017 SCT022 BKN027 09/07 A3016 RMK AO2 PK WND 33027/1303 T00890067
KFSD 211256Z 32019G25KT 10SM FEW019 SCT025 OVC034 09/07 A3013 RMK AO2 PK WND 31029/1157 RAB33E42 SLP206 P0000 T00940067 
KFSD 211225Z 30015G24KT 10SM SCT024 OVC030 10/07 A3010 RMK AO2 PK WND 31029/1157 T01000072
KFSD 211156Z 30017G27KT 10SM BKN021 OVC027 11/08 A3008 RMK AO2 PK WND 32031/1115 RAE44 SLP184 P0000 60000 70148 T01060078 10133 20106 53047 $   
KFSD 211056Z 28012G24KT 7SM -RA BKN017 OVC024 12/10 A3002 RMK AO2 RAB49 PRESRR SLP164 P0000 T01170100 $ 
KFSD 210956Z 29010G20KT 10SM BKN020 BKN030 12/09 A2997 RMK AO2 PRESRR SLP148 T01220094 $
KFSD 210856Z AUTO 30011G25KT 10SM OVC019 13/10 A2993 RMK AO2 PK WND 29029/0813 SLP134 T01330100 53020 $ 
KFSD 210756Z AUTO 29015G23KT 10SM OVC017 13/11 A2989 RMK AO2 PK WND 30027/0708 SLP121 T01330106 $   
KFSD 210726Z AUTO 29012G22KT 10SM OVC016 13/11 A2989 RMK AO2 PK WND 30027/0708 T01330106 $
KFSD 210656Z AUTO 29015G26KT 10SM OVC014 13/10 A2989 RMK AO2 PK WND 30032/0627 SLP119 T01280100 $